Time;durP1;ratioP1;P1;durP2;ratioP2;P2;SDS_P1;SDS_P2;PMS_P1;PMS_P2;Temp;Humidity;BMP_temperature;BMP_pressure;BME280_temperature;BME280_humidity;BME280_pressure;Samples;Min_cycle;Max_cycle;Signal;HPM_P1;HPM_P2
2023/05/01 00:00:04;;;;;;;10.85;6.55;;;8.30;99.90;;;;;;6182968;23;20005;-85
2023/05/01 00:02:30;;;;;;;12.45;6.22;;;8.30;99.90;;;;;;6155714;23;20436;-85
2023/05/01 00:04:56;;;;;;;10.82;6.22;;;8.30;99.90;;;;;;6131970;23;20205;-85
2023/05/01 00:07:23;;;;;;;9.82;5.55;;;8.60;99.90;;;;;;6156055;23;20013;-85
2023/05/01 00:09:50;;;;;;;12.90;6.70;;;8.30;99.90;;;;;;6131480;23;20013;-85
2023/05/01 00:12:16;;;;;;;9.68;6.40;;;8.30;99.90;;;;;;6156017;23;20013;-85
2023/05/01 00:14:41;;;;;;;11.88;6.68;;;8.20;99.90;;;;;;6156079;23;20493;-85
2023/05/01 00:17:07;;;;;;;10.25;6.47;;;8.40;99.90;;;;;;6155468;23;20448;-85
2023/05/01 00:19:33;;;;;;;12.23;6.88;;;8.20;99.90;;;;;;6156179;23;20024;-85
2023/05/01 00:21:58;;;;;;;9.82;6.78;;;8.20;99.90;;;;;;6156676;23;20408;-85
2023/05/01 00:24:24;;;;;;;8.30;6.43;;;8.20;99.90;;;;;;6131471;23;20009;-85
2023/05/01 00:26:52;;;;;;;10.57;6.40;;;8.20;99.90;;;;;;6182969;23;20024;-85
2023/05/01 00:29:18;;;;;;;11.07;6.15;;;8.10;99.90;;;;;;6182875;23;20013;-85
2023/05/01 00:31:44;;;;;;;9.45;7.00;;;8.00;99.90;;;;;;6156215;23;20069;-85
2023/05/01 00:34:12;;;;;;;10.93;6.78;;;8.00;99.90;;;;;;6182831;23;20333;-85
2023/05/01 00:36:38;;;;;;;12.27;6.47;;;8.00;99.90;;;;;;6131802;23;20060;-85
2023/05/01 00:39:06;;;;;;;13.73;6.93;;;7.90;99.90;;;;;;6131416;23;20389;-85
2023/05/01 00:41:33;;;;;;;12.00;7.03;;;7.90;99.90;;;;;;6156256;23;20041;-84
2023/05/01 00:43:58;;;;;;;13.60;7.43;;;7.90;99.90;;;;;;6156154;23;20067;-85
2023/05/01 00:46:24;;;;;;;13.80;6.40;;;7.80;99.90;;;;;;6182042;23;20009;-85
2023/05/01 00:48:51;;;;;;;10.38;6.55;;;7.80;99.90;;;;;;6131456;23;20536;-85
2023/05/01 00:51:18;;;;;;;11.48;7.07;;;7.80;99.90;;;;;;6157680;23;20092;-84
2023/05/01 00:53:44;;;;;;;10.80;7.00;;;7.80;99.90;;;;;;6157550;23;20017;-85
2023/05/01 00:56:10;;;;;;;10.40;6.40;;;7.70;99.90;;;;;;6157911;23;20013;-84
2023/05/01 00:58:37;;;;;;;12.48;6.88;;;7.70;99.90;;;;;;6133157;23;20016;-84
2023/05/01 01:01:04;;;;;;;11.25;7.63;;;7.60;99.90;;;;;;6132641;23;20024;-84
2023/05/01 01:03:30;;;;;;;11.93;6.75;;;7.60;99.90;;;;;;6133041;23;20344;-85
2023/05/01 01:06:23;;;;;;;11.20;6.90;;;7.60;99.90;;;;;;6157406;23;20460;-85
2023/05/01 01:09:00;;;;;;;10.35;6.80;;;8.20;99.90;;;;;;6177476;23;20017;-85
2023/05/01 01:11:58;;;;;;;8.75;6.57;;;7.60;99.90;;;;;;6133001;23;20023;-85
2023/05/01 01:14:34;;;;;;;9.98;6.38;;;7.50;99.90;;;;;;6107431;23;20391;-85
2023/05/01 01:17:17;;;;;;;10.23;7.10;;;7.50;99.90;;;;;;6153889;23;20040;-84
2023/05/01 01:20:07;;;;;;;11.43;6.70;;;7.50;99.90;;;;;;6152535;23;20013;-84
2023/05/01 01:22:37;;;;;;;10.63;7.43;;;7.40;99.90;;;;;;6153020;23;20020;-85
2023/05/01 01:25:18;;;;;;;13.38;6.63;;;7.40;99.90;;;;;;6152451;23;20029;-85
2023/05/01 01:27:59;;;;;;;11.55;7.05;;;7.40;99.90;;;;;;6152869;23;20013;-84
2023/05/01 01:30:55;;;;;;;9.98;7.22;;;7.40;99.90;;;;;;6152302;23;20013;-85
2023/05/01 01:33:43;;;;;;;12.93;7.10;;;7.30;99.90;;;;;;6152823;23;20021;-85
2023/05/01 01:36:20;;;;;;;11.23;7.07;;;7.30;99.90;;;;;;6128239;23;20021;-85
2023/05/01 01:38:52;;;;;;;11.18;7.35;;;7.30;99.90;;;;;;6154209;23;20077;-85
2023/05/01 01:41:24;;;;;;;12.52;7.53;;;7.30;99.90;;;;;;6128201;23;20084;-85
2023/05/01 01:43:59;;;;;;;14.95;7.63;;;7.20;99.90;;;;;;6153816;23;20084;-85
2023/05/01 01:46:25;;;;;;;14.27;7.72;;;7.20;99.90;;;;;;6153164;23;20024;-85
2023/05/01 01:48:54;;;;;;;12.15;7.45;;;7.20;99.90;;;;;;6152740;23;20029;-85
2023/05/01 01:51:21;;;;;;;13.50;7.50;;;7.20;99.90;;;;;;6152490;23;20037;-85
2023/05/01 01:53:52;;;;;;;17.17;8.57;;;7.20;99.90;;;;;;6154374;23;20021;-85
2023/05/01 01:56:21;;;;;;;12.27;7.28;;;7.20;99.90;;;;;;6152733;23;20017;-85
2023/05/01 01:58:50;;;;;;;10.75;7.80;;;7.10;99.90;;;;;;6151833;23;20013;-85
2023/05/01 02:01:17;;;;;;;11.77;7.07;;;7.10;99.90;;;;;;6154133;23;20123;-85
2023/05/01 02:03:45;;;;;;;12.68;8.45;;;7.10;99.90;;;;;;6127749;23;20064;-85
2023/05/01 02:06:12;;;;;;;18.80;8.43;;;7.10;99.90;;;;;;6152190;23;20508;-85
2023/05/01 02:08:40;;;;;;;11.82;8.25;;;7.10;99.90;;;;;;6153676;23;20017;-85
2023/05/01 02:11:06;;;;;;;15.52;8.20;;;7.10;99.90;;;;;;6152545;23;20020;-84
2023/05/01 02:13:35;;;;;;;14.05;8.15;;;7.00;99.90;;;;;;6151451;23;20021;-85
2023/05/01 02:16:02;;;;;;;12.55;7.55;;;7.00;99.90;;;;;;6127524;23;20021;-85
2023/05/01 02:18:29;;;;;;;13.25;7.80;;;7.00;99.90;;;;;;6154066;23;20045;-85
2023/05/01 02:20:57;;;;;;;14.38;7.72;;;7.00;99.90;;;;;;6154124;23;20410;-85
2023/05/01 02:23:24;;;;;;;14.10;7.90;;;7.00;99.90;;;;;;6152152;23;20014;-84
2023/05/01 02:25:52;;;;;;;27.73;8.63;;;6.90;99.90;;;;;;6154239;23;20262;-85
2023/05/01 02:28:22;;;;;;;11.65;8.20;;;6.90;99.90;;;;;;6127406;23;20024;-85
2023/05/01 02:30:47;;;;;;;13.50;8.02;;;6.90;99.90;;;;;;6152190;23;20088;-85
2023/05/01 02:33:13;;;;;;;13.30;7.88;;;6.80;99.90;;;;;;6127826;23;20452;-85
2023/05/01 02:35:40;;;;;;;14.23;8.60;;;6.80;99.90;;;;;;6154098;23;20093;-85
2023/05/01 02:38:06;;;;;;;16.90;8.57;;;6.80;99.90;;;;;;6152424;23;20025;-86
2023/05/01 02:40:33;;;;;;;13.38;8.05;;;6.90;99.90;;;;;;6127768;23;20112;-85
2023/05/01 02:43:03;;;;;;;15.50;9.15;;;6.80;99.90;;;;;;6151921;23;20055;-85
2023/05/01 02:45:31;;;;;;;13.23;8.40;;;6.70;99.90;;;;;;6152274;23;20005;-85
2023/05/01 02:47:59;;;;;;;13.13;8.13;;;6.70;99.90;;;;;;6151981;23;20474;-85
2023/05/01 02:50:26;;;;;;;13.55;8.20;;;6.60;99.90;;;;;;6127305;23;20020;-85
2023/05/01 02:52:52;;;;;;;14.15;9.13;;;6.60;99.90;;;;;;6127299;23;20022;-85
2023/05/01 02:55:18;;;;;;;15.60;9.18;;;6.60;99.90;;;;;;6153799;23;20041;-85
2023/05/01 02:57:44;;;;;;;12.05;8.65;;;6.50;99.90;;;;;;6151273;23;20013;-85
2023/05/01 03:00:12;;;;;;;14.45;9.10;;;6.50;99.90;;;;;;6151929;23;20025;-85
2023/05/01 03:02:39;;;;;;;13.90;8.93;;;6.50;99.90;;;;;;6127274;23;20356;-85
2023/05/01 03:05:05;;;;;;;12.43;8.95;;;6.50;99.90;;;;;;6127153;23;20014;-85
2023/05/01 03:07:34;;;;;;;12.68;8.98;;;6.50;99.90;;;;;;6153731;23;20063;-85
2023/05/01 03:10:02;;;;;;;14.05;9.05;;;6.50;99.90;;;;;;6153293;23;20441;-85
2023/05/01 03:12:28;;;;;;;17.52;10.57;;;6.40;99.90;;;;;;6125947;23;20036;-85
2023/05/01 03:14:54;;;;;;;14.40;9.07;;;6.70;99.90;;;;;;6151712;23;20013;-85
2023/05/01 03:17:19;;;;;;;15.82;10.00;;;6.40;99.90;;;;;;6151493;23;20071;-85
2023/05/01 03:19:45;;;;;;;16.58;9.27;;;6.40;99.90;;;;;;6152097;23;20005;-85
2023/05/01 03:22:11;;;;;;;14.07;9.45;;;6.40;99.90;;;;;;6126701;23;20036;-85
2023/05/01 03:24:36;;;;;;;13.88;9.57;;;6.40;99.90;;;;;;6152937;23;20013;-84
2023/05/01 03:27:02;;;;;;;16.05;9.07;;;6.40;99.90;;;;;;6153442;23;20085;-85
2023/05/01 03:29:28;;;;;;;12.10;9.02;;;6.30;99.90;;;;;;6153536;23;20408;-85
2023/05/01 03:31:53;;;;;;;15.85;9.90;;;6.30;99.90;;;;;;6126935;23;20017;-85
2023/05/01 03:34:19;;;;;;;16.52;9.70;;;6.30;99.90;;;;;;6153391;23;20016;-85
2023/05/01 03:36:44;;;;;;;16.42;9.68;;;6.20;99.90;;;;;;6151801;23;20016;-84
2023/05/01 03:39:11;;;;;;;17.20;10.27;;;6.20;99.90;;;;;;6152720;23;20020;-84
2023/05/01 03:41:37;;;;;;;11.70;9.27;;;6.40;99.90;;;;;;6151435;23;20013;-85
2023/05/01 03:44:03;;;;;;;16.10;10.00;;;6.20;99.90;;;;;;6153341;23;20017;-85
2023/05/01 03:46:29;;;;;;;17.02;10.40;;;6.10;99.90;;;;;;6126722;23;20014;-85
2023/05/01 03:48:54;;;;;;;14.18;10.52;;;6.10;99.90;;;;;;6126867;23;20096;-85
2023/05/01 03:51:20;;;;;;;16.83;10.80;;;6.10;99.90;;;;;;6153285;23;20455;-85
2023/05/01 03:53:46;;;;;;;16.15;11.52;;;6.20;99.90;;;;;;6152418;23;20019;-84
2023/05/01 03:56:11;;;;;;;15.80;10.40;;;6.10;99.90;;;;;;6126528;23;20022;-84
2023/05/01 03:58:37;;;;;;;16.40;10.98;;;6.10;99.90;;;;;;6126814;23;20016;-85
2023/05/01 04:01:03;;;;;;;19.25;11.02;;;6.00;99.90;;;;;;6153030;23;20014;-85
2023/05/01 04:03:28;;;;;;;15.98;11.38;;;6.00;99.90;;;;;;6151171;23;20014;-85
2023/05/01 04:05:54;;;;;;;14.73;10.93;;;6.10;99.90;;;;;;6153100;23;20061;-85
2023/05/01 04:08:20;;;;;;;16.52;11.00;;;6.10;99.90;;;;;;6152329;23;20044;-85
2023/05/01 04:10:46;;;;;;;16.77;10.20;;;6.10;99.90;;;;;;6151012;23;20017;-85
2023/05/01 04:13:11;;;;;;;17.83;10.93;;;6.00;99.90;;;;;;6150941;23;20024;-85
2023/05/01 04:15:37;;;;;;;17.50;10.85;;;6.10;99.90;;;;;;6126288;23;20468;-85
2023/05/01 04:18:03;;;;;;;18.20;11.13;;;6.10;99.90;;;;;;6150910;23;20389;-85
2023/05/01 04:20:29;;;;;;;16.35;11.52;;;6.10;99.90;;;;;;6150906;23;20014;-85
2023/05/01 04:22:55;;;;;;;15.75;11.13;;;6.10;99.90;;;;;;6125920;23;20230;-85
2023/05/01 04:25:20;;;;;;;17.30;11.27;;;6.10;99.90;;;;;;6151132;23;20391;-85
2023/05/01 04:27:46;;;;;;;15.52;11.10;;;6.20;99.90;;;;;;6151393;23;20020;-85
2023/05/01 04:30:12;;;;;;;17.38;10.50;;;6.80;99.90;;;;;;6151055;23;20321;-85
2023/05/01 04:32:37;;;;;;;19.02;10.55;;;6.20;99.90;;;;;;6150856;23;20340;-85
2023/05/01 04:35:03;;;;;;;16.25;10.70;;;6.30;99.90;;;;;;6151204;23;20021;-85
2023/05/01 04:37:29;;;;;;;21.65;11.15;;;6.30;99.90;;;;;;6150403;23;20018;-85
2023/05/01 04:39:55;;;;;;;22.42;11.63;;;6.40;99.90;;;;;;6150911;23;20021;-84
2023/05/01 04:42:20;;;;;;;16.63;11.05;;;6.40;99.90;;;;;;6152905;23;20333;-84
2023/05/01 04:44:46;;;;;;;18.90;11.50;;;6.50;99.90;;;;;;6151105;23;20100;-85
2023/05/01 04:47:12;;;;;;;14.93;11.10;;;6.50;99.90;;;;;;6151522;23;20390;-85
2023/05/01 04:49:38;;;;;;;15.98;11.18;;;6.60;99.90;;;;;;6153014;23;20006;-85
2023/05/01 04:52:03;;;;;;;18.90;10.93;;;6.60;99.90;;;;;;6152594;23;20075;-85
2023/05/01 04:54:29;;;;;;;14.63;10.68;;;6.70;99.90;;;;;;6126354;23;20018;-85
2023/05/01 04:56:55;;;;;;;15.35;10.40;;;6.80;99.90;;;;;;6150886;23;20013;-85
2023/05/01 04:59:20;;;;;;;16.90;10.52;;;7.30;99.90;;;;;;6126192;23;20068;-85
2023/05/01 05:01:46;;;;;;;15.40;10.15;;;6.90;99.90;;;;;;6126367;23;20088;-85
2023/05/01 05:04:12;;;;;;;17.10;11.07;;;7.00;99.90;;;;;;6126422;23;20096;-85
2023/05/01 05:06:37;;;;;;;17.75;11.25;;;7.10;99.90;;;;;;6152297;23;20009;-85
2023/05/01 05:09:03;;;;;;;13.32;10.55;;;7.20;99.90;;;;;;6150604;23;20014;-85
2023/05/01 05:11:28;;;;;;;19.38;10.20;;;7.30;99.90;;;;;;6126548;23;20045;-85
2023/05/01 05:13:54;;;;;;;17.35;10.55;;;7.40;99.90;;;;;;6150769;23;20021;-85
2023/05/01 05:16:21;;;;;;;16.55;11.30;;;7.40;99.90;;;;;;6150928;23;20029;-85
2023/05/01 05:18:46;;;;;;;17.15;9.98;;;7.50;99.90;;;;;;6150831;23;20096;-85
2023/05/01 05:21:12;;;;;;;14.38;10.07;;;7.60;99.90;;;;;;6151988;23;20044;-85
2023/05/01 05:23:38;;;;;;;14.88;9.75;;;7.80;99.90;;;;;;6151101;23;20048;-85
2023/05/01 05:26:04;;;;;;;14.77;10.23;;;8.20;99.90;;;;;;6152848;23;20021;-85
2023/05/01 05:28:30;;;;;;;17.15;10.05;;;8.10;99.90;;;;;;6126590;23;20017;-85
2023/05/01 05:30:56;;;;;;;17.17;9.55;;;8.30;99.90;;;;;;6150951;23;20024;-85
2023/05/01 05:33:23;;;;;;;13.88;9.98;;;8.50;99.90;;;;;;6150932;23;20017;-85
2023/05/01 05:35:50;;;;;;;16.20;9.82;;;8.80;99.90;;;;;;6125965;23;20028;-85
2023/05/01 05:38:16;;;;;;;13.60;10.05;;;9.10;99.90;;;;;;6153004;23;20041;-85
2023/05/01 05:40:41;;;;;;;12.43;9.00;;;8.80;99.90;;;;;;6152734;23;20040;-86
2023/05/01 05:43:07;;;;;;;12.18;9.20;;;8.80;99.90;;;;;;6153354;23;20016;-85
2023/05/01 05:45:33;;;;;;;14.57;9.57;;;8.90;99.90;;;;;;6154396;23;20009;-85
2023/05/01 05:47:59;;;;;;;13.05;9.05;;;9.00;99.90;;;;;;6128237;23;20091;-85
2023/05/01 05:50:24;;;;;;;16.48;9.95;;;9.10;99.90;;;;;;6152051;23;20085;-86
2023/05/01 05:52:50;;;;;;;14.68;9.38;;;9.40;99.90;;;;;;6154610;23;20017;-85
2023/05/01 05:55:16;;;;;;;12.80;9.48;;;10.00;99.90;;;;;;6152762;23;20400;-86
2023/05/01 05:57:44;;;;;;;13.50;9.13;;;10.60;99.90;;;;;;6154491;23;20021;-86
2023/05/01 06:00:10;;;;;;;11.60;8.35;;;11.10;99.90;;;;;;6127542;23;20013;-85
2023/05/01 06:02:36;;;;;;;13.13;8.50;;;11.60;99.90;;;;;;6152132;23;20408;-85
2023/05/01 06:05:02;;;;;;;12.35;8.60;;;12.30;99.90;;;;;;6153698;23;20013;-86
2023/05/01 06:07:28;;;;;;;13.80;8.70;;;12.30;99.90;;;;;;6153779;23;20547;-86
2023/05/01 06:09:54;;;;;;;10.45;8.82;;;12.40;99.90;;;;;;6154173;23;20045;-86
2023/05/01 06:12:20;;;;;;;11.85;8.35;;;12.70;99.90;;;;;;6152069;23;20018;-85
2023/05/01 06:14:46;;;;;;;13.20;8.90;;;12.80;99.90;;;;;;6152810;23;20028;-86
2023/05/01 06:17:13;;;;;;;13.02;8.55;;;13.00;99.90;;;;;;6152515;23;20085;-86
2023/05/01 06:19:38;;;;;;;15.00;8.40;;;13.00;99.90;;;;;;6153203;23;20088;-86
2023/05/01 06:22:05;;;;;;;12.27;8.55;;;12.80;99.90;;;;;;6152113;23;20045;-85
2023/05/01 06:24:31;;;;;;;13.73;8.23;;;12.90;99.90;;;;;;6152611;23;20017;-86
2023/05/01 06:26:57;;;;;;;11.23;8.02;;;12.90;99.90;;;;;;6152529;23;20277;-86
2023/05/01 06:29:22;;;;;;;14.35;8.10;;;13.00;99.90;;;;;;6154265;23;20084;-86
2023/05/01 06:31:48;;;;;;;10.65;8.05;;;13.20;99.90;;;;;;6152648;23;20112;-86
2023/05/01 06:34:13;;;;;;;14.50;7.80;;;13.40;99.90;;;;;;6127057;23;20341;-85
2023/05/01 06:36:39;;;;;;;12.45;8.00;;;13.70;99.90;;;;;;6154160;23;20059;-86
2023/05/01 06:39:05;;;;;;;13.57;8.25;;;13.80;99.90;;;;;;6152332;23;20041;-86
2023/05/01 06:41:31;;;;;;;11.82;8.35;;;14.30;99.90;;;;;;6152377;23;20028;-86
2023/05/01 06:43:57;;;;;;;12.73;7.97;;;14.50;99.90;;;;;;6127627;23;20084;-86
2023/05/01 06:46:23;;;;;;;12.13;7.68;;;14.90;99.90;;;;;;6151894;23;20378;-86
2023/05/01 06:48:48;;;;;;;13.40;7.32;;;14.80;99.90;;;;;;6151176;23;20013;-86
2023/05/01 06:51:14;;;;;;;11.95;7.90;;;14.80;99.90;;;;;;6151918;23;20009;-86
2023/05/01 06:53:40;;;;;;;11.65;7.85;;;14.60;99.90;;;;;;6153479;23;20017;-86
2023/05/01 06:56:07;;;;;;;12.35;7.68;;;14.30;99.90;;;;;;6153590;23;20009;-86
2023/05/01 06:58:32;;;;;;;11.70;8.10;;;13.90;99.90;;;;;;6152311;23;20028;-86
2023/05/01 07:00:58;;;;;;;10.88;7.45;;;13.90;99.90;;;;;;6153858;23;20091;-86
2023/05/01 07:03:26;;;;;;;14.85;8.25;;;13.50;99.90;;;;;;6151998;23;20311;-86
2023/05/01 07:05:54;;;;;;;11.35;7.30;;;13.60;99.90;;;;;;6152283;23;20005;-86
2023/05/01 07:08:20;;;;;;;11.65;7.35;;;13.60;99.90;;;;;;6151874;23;20085;-86
2023/05/01 07:10:46;;;;;;;11.82;7.90;;;13.60;99.90;;;;;;6127094;23;20099;-86
2023/05/01 07:13:12;;;;;;;12.57;7.38;;;13.90;99.90;;;;;;6151669;23;20016;-86
2023/05/01 07:15:37;;;;;;;13.25;7.35;;;14.10;99.90;;;;;;6153765;23;20029;-86
2023/05/01 07:18:06;;;;;;;13.60;7.53;;;14.70;99.90;;;;;;6151007;23;20017;-86
2023/05/01 07:20:33;;;;;;;11.93;7.20;;;15.40;99.90;;;;;;6127325;23;20449;-86
2023/05/01 07:22:59;;;;;;;13.52;7.65;;;15.90;99.90;;;;;;6151726;23;20014;-87
2023/05/01 07:25:25;;;;;;;16.05;6.72;;;16.20;99.90;;;;;;6151645;23;20013;-86
2023/05/01 07:27:51;;;;;;;13.85;7.55;;;16.30;99.90;;;;;;6152059;23;20146;-86
2023/05/01 07:30:16;;;;;;;15.15;7.28;;;16.10;99.90;;;;;;6151759;23;20467;-86
2023/05/01 07:32:42;;;;;;;11.57;7.28;;;16.50;99.90;;;;;;6152891;23;20024;-87
2023/05/01 07:35:08;;;;;;;11.27;6.55;;;16.70;99.90;;;;;;6153571;23;20052;-86
2023/05/01 07:37:33;;;;;;;10.32;6.80;;;16.70;99.90;;;;;;6151631;23;20082;-86
2023/05/01 07:39:59;;;;;;;14.05;6.43;;;17.20;99.90;;;;;;6126761;23;20013;-86
2023/05/01 07:42:28;;;;;;;11.25;6.30;;;17.60;99.50;;;;;;6127028;23;20009;-86
2023/05/01 07:44:53;;;;;;;9.75;6.43;;;18.10;99.90;;;;;;6151420;23;20045;-86
2023/05/01 07:47:19;;;;;;;13.05;6.85;;;17.90;97.40;;;;;;6126207;23;20010;-86
2023/05/01 07:49:45;;;;;;;9.05;6.03;;;17.90;98.10;;;;;;6153353;23;20013;-86
2023/05/01 07:52:10;;;;;;;12.30;6.22;;;18.30;98.10;;;;;;6152862;23;20052;-86
2023/05/01 07:54:36;;;;;;;14.70;6.70;;;18.30;97.40;;;;;;6151033;23;20021;-86
2023/05/01 07:57:03;;;;;;;12.43;6.50;;;18.00;98.00;;;;;;6126705;23;20361;-87
2023/05/01 07:59:28;;;;;;;10.93;6.15;;;18.20;98.50;;;;;;6151687;23;20006;-87
2023/05/01 08:01:55;;;;;;;11.10;5.78;;;18.30;98.60;;;;;;6152568;23;20009;-87
2023/05/01 08:04:21;;;;;;;13.35;7.05;;;18.60;98.50;;;;;;6126555;23;20115;-86
2023/05/01 08:06:50;;;;;;;10.60;6.47;;;18.50;97.30;;;;;;6153252;23;20401;-86
2023/05/01 08:09:16;;;;;;;11.18;6.28;;;18.60;96.60;;;;;;6126508;23;20013;-87
2023/05/01 08:11:41;;;;;;;10.20;6.60;;;18.70;96.70;;;;;;6151049;23;20021;-86
2023/05/01 08:14:07;;;;;;;13.55;6.82;;;18.70;96.50;;;;;;6151166;23;20022;-86
2023/05/01 08:16:34;;;;;;;10.07;6.28;;;18.60;96.10;;;;;;6126027;23;20013;-86
2023/05/01 08:19:00;;;;;;;9.60;5.78;;;18.30;96.70;;;;;;6126537;23;20022;-86
2023/05/01 08:21:25;;;;;;;10.10;6.57;;;18.20;98.20;;;;;;6151367;23;20020;-86
2023/05/01 08:23:54;;;;;;;16.85;6.38;;;18.50;97.60;;;;;;6151356;23;20310;-86
2023/05/01 08:26:20;;;;;;;12.63;5.80;;;18.90;97.40;;;;;;6151038;23;20338;-86
2023/05/01 08:28:46;;;;;;;11.20;5.97;;;19.20;96.70;;;;;;6151108;23;20009;-86
2023/05/01 08:31:12;;;;;;;11.85;5.85;;;19.30;96.50;;;;;;6150302;23;20028;-86
2023/05/01 08:33:40;;;;;;;11.00;5.97;;;19.10;94.80;;;;;;6126459;23;20088;-87
2023/05/01 08:36:07;;;;;;;8.65;5.20;;;19.30;95.40;;;;;;6150927;23;20100;-87
2023/05/01 08:38:32;;;;;;;12.65;6.05;;;19.60;96.40;;;;;;6126402;23;20018;-86
2023/05/01 08:41:00;;;;;;;9.45;5.97;;;19.90;96.10;;;;;;6153127;23;20005;-85
2023/05/01 08:43:27;;;;;;;10.25;5.82;;;20.00;93.30;;;;;;6151012;23;20041;-86
2023/05/01 08:45:55;;;;;;;10.57;5.25;;;19.50;92.70;;;;;;6151831;23;20441;-86
2023/05/01 08:48:22;;;;;;;12.88;5.65;;;19.50;93.30;;;;;;6152770;23;20020;-86
2023/05/01 08:50:48;;;;;;;11.63;5.60;;;19.60;93.40;;;;;;6151235;23;20281;-86
2023/05/01 08:53:19;;;;;;;8.32;5.20;;;19.70;93.50;;;;;;6151102;23;20053;-86
2023/05/01 08:55:47;;;;;;;11.40;5.80;;;20.00;93.90;;;;;;6126396;23;20021;-86
2023/05/01 08:58:15;;;;;;;12.70;4.72;;;19.70;92.60;;;;;;6152205;23;20045;-86
2023/05/01 09:00:41;;;;;;;7.88;4.28;;;20.10;93.00;;;;;;6152713;23;20005;-86
2023/05/01 09:03:10;;;;;;;7.63;3.78;;;20.10;91.70;;;;;;6152603;23;20052;-86
2023/05/01 09:05:36;;;;;;;9.48;3.85;;;20.00;91.80;;;;;;6151354;23;20009;-86
2023/05/01 09:08:02;;;;;;;9.57;4.35;;;19.70;91.10;;;;;;6150619;23;20017;-86
2023/05/01 09:10:28;;;;;;;11.27;4.47;;;19.30;90.60;;;;;;6126051;23;20025;-86
2023/05/01 09:13:00;;;;;;;8.38;4.38;;;19.20;92.60;;;;;;6152141;23;20042;-86
2023/05/01 09:15:27;;;;;;;10.52;4.22;;;19.00;92.20;;;;;;6154894;23;20023;-86
2023/05/01 09:17:53;;;;;;;9.13;3.83;;;18.90;91.90;;;;;;6127807;23;20348;-86
2023/05/01 09:20:19;;;;;;;9.13;4.00;;;18.90;92.60;;;;;;6154757;23;20014;-86
2023/05/01 09:22:45;;;;;;;9.20;3.55;;;18.70;90.20;;;;;;6127953;23;20071;-86
2023/05/01 09:25:10;;;;;;;8.75;3.90;;;18.80;90.60;;;;;;6128130;23;20053;-86
2023/05/01 09:27:39;;;;;;;10.88;3.20;;;18.40;90.20;;;;;;6152250;23;20057;-86
2023/05/01 09:30:06;;;;;;;10.15;3.65;;;18.60;90.90;;;;;;6128182;23;20013;-86
2023/05/01 09:32:32;;;;;;;8.13;3.30;;;18.90;90.80;;;;;;6128118;23;20020;-86
2023/05/01 09:35:14;;;;;;;7.90;3.08;;;18.90;90.60;;;;;;6152888;23;20037;-86
2023/05/01 09:37:40;;;;;;;8.65;4.00;;;19.20;90.00;;;;;;6152677;23;20436;-86
2023/05/01 09:40:10;;;;;;;7.85;3.35;;;19.50;90.20;;;;;;6154926;23;20012;-86
2023/05/01 09:42:38;;;;;;;11.82;4.10;;;20.00;90.30;;;;;;6127758;23;20333;-86
2023/05/01 09:45:10;;;;;;;9.02;3.28;;;19.80;89.30;;;;;;6153244;23;20033;-86
2023/05/01 09:47:36;;;;;;;12.50;5.00;;;20.00;90.80;;;;;;6128504;23;20013;-86
2023/05/01 09:50:03;;;;;;;7.70;3.17;;;20.10;91.10;;;;;;6154834;23;20331;-86
2023/05/01 09:52:30;;;;;;;10.38;3.53;;;20.00;91.40;;;;;;6152640;23;20463;-86
2023/05/01 09:55:16;;;;;;;7.63;2.88;;;19.80;90.90;;;;;;6153092;23;20017;-86
2023/05/01 09:57:44;;;;;;;7.72;3.15;;;19.60;90.20;;;;;;6153431;23;20013;-87
2023/05/01 10:00:11;;;;;;;8.80;3.22;;;19.50;91.50;;;;;;6152747;23;20345;-86
2023/05/01 10:02:38;;;;;;;6.40;2.53;;;19.30;90.00;;;;;;6154394;23;20018;-86
2023/05/01 10:05:06;;;;;;;8.15;2.83;;;19.30;91.00;;;;;;6153828;23;20024;-86
2023/05/01 10:07:32;;;;;;;8.18;3.03;;;19.40;92.50;;;;;;6152259;23;20122;-86
2023/05/01 10:09:58;;;;;;;7.80;2.80;;;19.50;90.70;;;;;;6127481;23;20024;-86
2023/05/01 10:12:28;;;;;;;7.65;2.55;;;19.60;92.00;;;;;;6151665;23;20005;-86
2023/05/01 10:14:55;;;;;;;4.07;1.83;;;19.50;90.70;;;;;;6152108;23;20060;-86
2023/05/01 10:17:21;;;;;;;5.30;2.38;;;19.60;91.50;;;;;;6127326;23;20025;-86
2023/05/01 10:19:47;;;;;;;4.82;2.35;;;19.70;92.00;;;;;;6153672;23;20022;-86
2023/05/01 10:22:13;;;;;;;5.45;2.35;;;19.80;91.10;;;;;;6153968;23;20009;-86
2023/05/01 10:24:39;;;;;;;5.15;2.47;;;19.70;90.20;;;;;;6127351;23;20017;-86
2023/05/01 10:27:09;;;;;;;5.20;2.40;;;19.10;90.00;;;;;;6153347;23;20218;-86
2023/05/01 10:29:38;;;;;;;7.05;2.40;;;19.00;90.80;;;;;;6152511;23;20098;-86
2023/05/01 10:32:06;;;;;;;5.40;2.58;;;19.10;91.60;;;;;;6127317;23;20040;-86
2023/05/01 10:34:36;;;;;;;6.20;2.92;;;19.20;91.90;;;;;;6151936;23;20327;-86
2023/05/01 10:37:11;;;;;;;8.68;2.97;;;19.20;90.20;;;;;;6127236;23;20160;-86
2023/05/01 10:39:37;;;;;;;7.97;2.90;;;19.00;90.30;;;;;;6151657;23;20014;-86
2023/05/01 10:42:09;;;;;;;7.00;2.80;;;18.90;90.90;;;;;;6151916;23;20089;-86
2023/05/01 10:44:36;;;;;;;5.63;2.50;;;19.00;92.10;;;;;;6152064;23;20039;-86
2023/05/01 10:47:29;;;;;;;10.82;2.97;;;19.10;91.50;;;;;;6127302;23;20560;-86
2023/05/01 10:50:06;;;;;;;7.03;3.05;;;19.20;90.60;;;;;;6144611;23;20025;-86
2023/05/01 10:53:13;;;;;;;8.07;3.42;;;19.00;90.80;;;;;;6152164;23;20006;-85
2023/05/01 10:55:46;;;;;;;6.85;3.00;;;18.80;91.20;;;;;;6150960;23;20009;-86
2023/05/01 10:58:33;;;;;;;6.07;3.05;;;18.60;90.40;;;;;;6153814;23;20089;-86
2023/05/01 11:01:27;;;;;;;8.50;3.10;;;18.80;92.20;;;;;;6127059;23;20022;-86
2023/05/01 11:03:57;;;;;;;6.95;3.25;;;19.00;91.50;;;;;;6153697;23;20005;-86
2023/05/01 11:06:23;;;;;;;9.02;2.95;;;18.90;92.30;;;;;;6151691;23;20064;-86
2023/05/01 11:08:49;;;;;;;5.63;2.47;;;19.10;91.50;;;;;;6150937;23;20028;-86
2023/05/01 11:11:21;;;;;;;5.55;2.28;;;19.20;90.90;;;;;;6152072;23;20033;-86
2023/05/01 11:14:03;;;;;;;4.38;2.10;;;19.40;90.90;;;;;;6151649;23;20097;-86
2023/05/01 11:16:45;;;;;;;7.28;1.90;;;19.40;89.00;;;;;;6151542;23;20401;-86
2023/05/01 11:19:19;;;;;;;5.07;1.80;;;19.10;88.40;;;;;;6126929;23;20033;-86
2023/05/01 11:21:45;;;;;;;4.07;1.98;;;19.10;89.60;;;;;;6151542;23;20049;-85
2023/05/01 11:24:11;;;;;;;6.13;2.03;;;19.00;89.00;;;;;;6152919;23;20009;-86
2023/05/01 11:26:39;;;;;;;5.30;1.67;;;19.30;91.10;;;;;;6127343;23;20456;-86
2023/05/01 11:29:06;;;;;;;5.10;1.65;;;19.40;89.10;;;;;;6126779;23;20024;-85
2023/05/01 11:31:35;;;;;;;4.97;2.00;;;19.30;90.10;;;;;;6151300;23;20028;-86
2023/05/01 11:34:01;;;;;;;4.13;1.67;;;19.50;90.40;;;;;;6152989;23;20230;-86
2023/05/01 11:36:29;;;;;;;6.25;1.90;;;19.70;90.20;;;;;;6126782;23;20017;-86
2023/05/01 11:38:58;;;;;;;5.85;2.38;;;20.10;91.30;;;;;;6150595;23;20014;-86
2023/05/01 11:41:27;;;;;;;3.28;1.73;;;20.10;88.60;;;;;;6152930;23;20036;-86
2023/05/01 11:43:59;;;;;;;3.95;1.75;;;20.10;89.30;;;;;;6127067;23;20013;-85
2023/05/01 11:46:30;;;;;;;8.07;1.70;;;20.20;87.00;;;;;;6151271;23;20464;-86
2023/05/01 11:48:57;;;;;;;4.72;1.33;;;20.40;89.20;;;;;;6151404;23;20025;-86
2023/05/01 11:51:24;;;;;;;5.72;1.48;;;20.40;85.40;;;;;;6151547;23;20141;-86
2023/05/01 11:54:00;;;;;;;4.15;1.63;;;20.20;84.80;;;;;;6151103;23;20017;-86
2023/05/01 11:56:25;;;;;;;3.70;1.35;;;20.40;86.80;;;;;;6126958;23;20069;-86
2023/05/01 11:58:53;;;;;;;4.70;1.70;;;20.40;87.50;;;;;;6153299;23;20432;-86
2023/05/01 12:01:18;;;;;;;4.60;1.30;;;20.30;88.10;;;;;;6126952;23;20009;-86
2023/05/01 12:03:44;;;;;;;4.05;1.35;;;20.40;89.20;;;;;;6151728;23;20346;-86
2023/05/01 12:06:12;;;;;;;4.20;1.02;;;20.50;88.40;;;;;;6151315;23;20025;-86
2023/05/01 12:08:42;;;;;;;3.30;1.05;;;20.60;89.70;;;;;;6150645;23;20017;-86
2023/05/01 12:11:08;;;;;;;5.30;1.25;;;20.60;88.50;;;;;;6151606;23;20081;-86
2023/05/01 12:13:34;;;;;;;3.75;1.30;;;20.80;87.80;;;;;;6126429;23;20445;-86
2023/05/01 12:16:00;;;;;;;4.20;1.77;;;20.80;86.40;;;;;;6126485;23;20022;-86
2023/05/01 12:18:26;;;;;;;4.93;1.65;;;20.90;87.50;;;;;;6151290;23;20100;-86
2023/05/01 12:20:55;;;;;;;7.10;1.75;;;20.80;86.50;;;;;;6152962;23;20057;-86
2023/05/01 12:23:36;;;;;;;3.42;1.52;;;20.70;87.10;;;;;;6152645;23;20092;-86
2023/05/01 12:26:14;;;;;;;4.28;1.80;;;20.30;85.70;;;;;;6126587;23;20020;-86
2023/05/01 12:28:59;;;;;;;3.97;1.67;;;20.30;88.50;;;;;;6126686;23;20122;-86
2023/05/01 12:31:25;;;;;;;4.70;1.70;;;20.00;87.80;;;;;;6126754;23;20017;-86
2023/05/01 12:33:56;;;;;;;4.60;1.80;;;20.10;88.60;;;;;;6151692;23;20088;-86
2023/05/01 12:36:24;;;;;;;5.05;1.90;;;20.10;90.00;;;;;;6150966;23;20017;-85
2023/05/01 12:39:07;;;;;;;3.78;1.48;;;20.10;88.90;;;;;;6152947;23;20072;-86
2023/05/01 12:41:43;;;;;;;5.13;2.05;;;20.20;88.80;;;;;;6126348;23;20413;-86
2023/05/01 12:44:19;;;;;;;4.93;1.80;;;19.90;88.70;;;;;;6127307;23;20020;-86
2023/05/01 12:46:51;;;;;;;5.45;1.70;;;20.00;90.10;;;;;;6127548;23;20016;-85